createdAt,value
2018-11-23T00:00:20.193Z,0.30
2018-11-23T00:02:49.181Z,0.30
2018-11-23T00:05:17.673Z,0.30
2018-11-23T00:07:47.384Z,0.30
2018-11-23T00:10:18.549Z,0.30
2018-11-23T00:12:47.064Z,0.30
2018-11-23T00:15:18.460Z,0.30
2018-11-23T00:17:47.176Z,0.30
2018-11-23T00:20:26.260Z,0.30
2018-11-23T00:22:54.661Z,0.30
2018-11-23T00:25:23.981Z,0.30
2018-11-23T00:27:52.760Z,0.40
2018-11-23T00:30:23.533Z,0.40
2018-11-23T00:32:52.521Z,0.40
2018-11-23T00:35:22.247Z,0.40
2018-11-23T00:37:51.207Z,0.40
2018-11-23T00:40:28.575Z,0.50
2018-11-23T00:42:57.187Z,0.50
2018-11-23T00:45:25.853Z,0.50
2018-11-23T00:47:55.380Z,0.60
2018-11-23T00:50:24.494Z,0.60
2018-11-23T00:52:54.067Z,0.50
2018-11-23T00:55:23.499Z,0.60
2018-11-23T00:57:51.726Z,0.60
2018-11-23T01:00:24.983Z,0.60
2018-11-23T01:02:53.832Z,0.60
2018-11-23T01:05:22.418Z,0.60
2018-11-23T01:07:50.770Z,0.60
2018-11-23T01:10:20.108Z,0.60
2018-11-23T01:12:49.500Z,0.60
2018-11-23T01:15:17.751Z,0.60
2018-11-23T01:17:46.032Z,0.60
2018-11-23T01:20:16.680Z,0.50
2018-11-23T01:22:45.147Z,0.60
2018-11-23T01:25:14.621Z,0.50
2018-11-23T01:27:43.775Z,0.50
2018-11-23T01:30:15.483Z,0.50
2018-11-23T01:32:43.787Z,0.50
2018-11-23T01:35:12.116Z,0.50
2018-11-23T01:37:40.589Z,0.50
2018-11-23T01:40:11.750Z,0.50
2018-11-23T01:42:40.080Z,0.50
2018-11-23T01:45:09.316Z,0.50
2018-11-23T01:47:37.798Z,0.50
2018-11-23T01:50:13.623Z,0.50
2018-11-23T01:52:42.441Z,0.50
2018-11-23T01:55:13.853Z,0.60
2018-11-23T01:57:42.759Z,0.50
2018-11-23T02:00:13.537Z,0.50
2018-11-23T02:02:41.840Z,0.50
2018-11-23T02:05:11.012Z,0.50
2018-11-23T02:07:40.380Z,0.50
2018-11-23T02:10:09.932Z,0.50
2018-11-23T02:12:38.264Z,0.60
2018-11-23T02:15:09.962Z,0.50
2018-11-23T02:17:38.209Z,0.50
2018-11-23T02:20:08.786Z,0.50
2018-11-23T02:22:39.277Z,0.50
2018-11-23T02:25:07.770Z,0.50
2018-11-23T02:27:36.099Z,0.50
2018-11-23T02:30:07.906Z,0.50
2018-11-23T02:32:36.723Z,0.50
2018-11-23T02:35:05.366Z,0.50
2018-11-23T02:37:34.339Z,0.50
2018-11-23T02:40:03.031Z,0.50
2018-11-23T02:42:32.253Z,0.50
2018-11-23T02:45:00.622Z,0.50
2018-11-23T02:47:28.869Z,0.50
2018-11-23T02:49:57.395Z,0.50
2018-11-23T02:52:25.682Z,0.50
2018-11-23T02:54:53.932Z,0.50
2018-11-23T02:57:22.212Z,0.50
2018-11-23T02:59:50.489Z,0.50
2018-11-23T03:02:18.808Z,0.50
2018-11-23T03:04:47.128Z,0.50
2018-11-23T03:07:15.384Z,0.50
2018-11-23T03:09:43.677Z,0.50
2018-11-23T03:12:12.080Z,0.50
2018-11-23T03:14:40.330Z,0.50
2018-11-23T03:17:09.399Z,0.50
2018-11-23T03:19:37.946Z,0.50
2018-11-23T03:22:06.242Z,0.50
2018-11-23T03:24:34.565Z,0.50
2018-11-23T03:27:02.863Z,0.50
2018-11-23T03:29:31.138Z,0.50
2018-11-23T03:31:59.395Z,0.50
2018-11-23T03:34:28.157Z,0.50
2018-11-23T03:36:56.462Z,0.40
2018-11-23T03:39:24.714Z,0.40
2018-11-23T03:41:52.967Z,0.40
2018-11-23T03:44:21.248Z,0.50
2018-11-23T03:46:49.554Z,0.50
2018-11-23T03:49:17.841Z,0.50
2018-11-23T03:51:46.073Z,0.50
2018-11-23T03:54:14.390Z,0.60
2018-11-23T03:56:42.663Z,0.50
2018-11-23T03:59:10.999Z,0.50
2018-11-23T04:01:39.339Z,0.50
2018-11-23T04:04:08.158Z,0.50
2018-11-23T04:06:41.026Z,0.40
2018-11-23T04:09:09.809Z,0.50
2018-11-23T04:11:38.677Z,0.40
2018-11-23T04:14:07.435Z,0.40
2018-11-23T04:16:35.698Z,0.40
2018-11-23T04:19:03.976Z,0.40
2018-11-23T04:21:32.293Z,0.40
2018-11-23T04:24:00.557Z,0.30
2018-11-23T04:26:28.882Z,0.30
2018-11-23T04:28:57.425Z,0.30
2018-11-23T04:31:25.651Z,0.20
2018-11-23T04:33:54.047Z,0.20
2018-11-23T04:36:22.379Z,0.20
2018-11-23T04:38:51.867Z,0.20
2018-11-23T04:41:20.120Z,0.20
2018-11-23T04:43:48.723Z,0.20
2018-11-23T04:46:17.061Z,0.20
2018-11-23T04:48:45.399Z,0.20
2018-11-23T04:51:13.693Z,0.20
2018-11-23T04:53:41.978Z,0.20
2018-11-23T04:56:10.493Z,0.20
2018-11-23T04:58:38.742Z,0.20
2018-11-23T05:01:07.069Z,0.20
2018-11-23T05:03:35.379Z,0.20
2018-11-23T05:06:03.992Z,0.30
2018-11-23T05:08:32.198Z,0.30
2018-11-23T05:11:00.460Z,0.30
2018-11-23T05:13:29.177Z,0.30
2018-11-23T05:15:57.500Z,0.40
2018-11-23T05:18:25.750Z,0.40
2018-11-23T05:20:54.301Z,0.40
2018-11-23T05:23:22.554Z,0.40
2018-11-23T05:25:51.453Z,0.40
2018-11-23T05:28:19.778Z,0.40
2018-11-23T05:30:48.046Z,0.40
2018-11-23T05:33:16.358Z,0.40
2018-11-23T05:35:45.281Z,0.40
2018-11-23T05:38:13.602Z,0.40
2018-11-23T05:40:42.139Z,0.40
2018-11-23T05:43:10.911Z,0.40
2018-11-23T05:45:39.193Z,0.40
2018-11-23T05:48:07.525Z,0.40
2018-11-23T05:50:35.785Z,0.50
2018-11-23T05:53:04.148Z,0.50
2018-11-23T05:55:32.450Z,0.60
2018-11-23T05:58:00.729Z,0.50
2018-11-23T06:00:30.483Z,0.60
2018-11-23T06:02:58.772Z,0.60
2018-11-23T06:05:27.135Z,0.60
2018-11-23T06:07:55.406Z,0.60
2018-11-23T06:10:24.046Z,0.60
2018-11-23T06:12:52.452Z,0.60
2018-11-23T06:15:23.772Z,0.60
2018-11-23T06:17:52.371Z,0.60
2018-11-23T06:20:24.320Z,0.60
2018-11-23T06:22:54.548Z,0.60
2018-11-23T06:25:26.784Z,0.60
2018-11-23T06:27:55.114Z,0.60
2018-11-23T06:30:23.425Z,0.60
2018-11-23T06:33:03.069Z,0.60
2018-11-23T06:35:31.861Z,0.60
2018-11-23T06:38:00.386Z,0.60
2018-11-23T06:40:28.710Z,0.50
2018-11-23T06:42:57.000Z,0.50
2018-11-23T06:45:25.339Z,0.50
2018-11-23T06:47:53.722Z,0.60
2018-11-23T06:50:21.970Z,0.60
2018-11-23T06:52:50.263Z,0.60
2018-11-23T06:55:18.861Z,0.60
2018-11-23T06:57:47.369Z,0.60
2018-11-23T07:00:16.497Z,0.60
2018-11-23T07:02:45.303Z,0.60
2018-11-23T07:05:13.875Z,0.60
2018-11-23T07:07:42.322Z,0.60
2018-11-23T07:10:11.149Z,0.60
2018-11-23T07:12:39.915Z,0.60
2018-11-23T07:15:10.327Z,0.60
2018-11-23T07:17:40.078Z,0.60
2018-11-23T07:20:11.182Z,0.60
2018-11-23T07:22:40.172Z,0.60
2018-11-23T07:25:09.761Z,0.60
2018-11-23T07:27:38.050Z,0.70
2018-11-23T07:30:16.038Z,0.70
2018-11-23T07:32:44.717Z,0.70
2018-11-23T07:35:14.515Z,0.70
2018-11-23T07:37:42.934Z,0.70
2018-11-23T07:40:24.105Z,0.70
2018-11-23T07:42:52.924Z,0.80
2018-11-23T07:45:21.286Z,0.80
2018-11-23T07:47:50.373Z,0.80
2018-11-23T07:50:18.766Z,0.80
2018-11-23T07:52:47.085Z,0.80
2018-11-23T07:55:16.246Z,0.90
2018-11-23T07:57:44.697Z,0.90
2018-11-23T08:00:16.055Z,0.90
2018-11-23T08:02:45.029Z,0.90
2018-11-23T08:05:14.697Z,0.90
2018-11-23T08:07:42.994Z,1.00
2018-11-23T08:10:14.969Z,1.00
2018-11-23T08:12:49.578Z,1.10
2018-11-23T08:15:27.308Z,1.10
2018-11-23T08:18:02.658Z,1.20
2018-11-23T08:20:32.692Z,1.20
2018-11-23T08:23:02.284Z,1.30
2018-11-23T08:25:31.820Z,1.40
2018-11-23T08:28:01.246Z,1.50
2018-11-23T08:30:30.361Z,1.50
2018-11-23T08:32:58.920Z,1.60
2018-11-23T08:35:28.985Z,1.60
2018-11-23T08:37:57.981Z,1.80
2018-11-23T08:40:27.588Z,1.80
2018-11-23T08:42:56.376Z,1.90
2018-11-23T08:45:27.266Z,2.00
2018-11-23T08:47:55.695Z,2.10
2018-11-23T08:50:30.049Z,2.10
2018-11-23T08:52:59.799Z,2.20
2018-11-23T08:55:28.457Z,2.30
2018-11-23T08:58:18.685Z,2.40
2018-11-23T09:00:50.134Z,2.40
2018-11-23T09:03:23.829Z,2.50
2018-11-23T09:05:52.980Z,2.60
2018-11-23T09:08:52.653Z,2.60
2018-11-23T09:11:28.963Z,2.70
2018-11-23T09:14:07.089Z,2.80
2018-11-23T09:19:58.397Z,2.90
2018-11-23T09:22:28.692Z,2.90
2018-11-23T09:24:58.500Z,3.00
2018-11-23T09:27:35.614Z,3.10
2018-11-23T09:30:12.048Z,3.20
2018-11-23T09:32:42.547Z,3.20
2018-11-23T09:35:12.746Z,3.20
2018-11-23T09:37:41.999Z,3.30
2018-11-23T09:40:19.413Z,3.40
2018-11-23T09:43:05.667Z,3.50
2018-11-23T09:45:41.837Z,3.60
2018-11-23T09:48:38.418Z,3.70
2018-11-23T09:51:07.259Z,3.80
2018-11-23T09:53:38.046Z,3.80
2018-11-23T09:56:07.678Z,3.90
2018-11-23T09:58:39.388Z,4.00
2018-11-23T10:01:21.697Z,4.10
2018-11-23T10:04:08.426Z,4.20
2018-11-23T10:06:52.277Z,4.30
2018-11-23T10:09:21.447Z,4.30
2018-11-23T10:11:49.742Z,4.40
2018-11-23T10:14:25.262Z,4.50
2018-11-23T10:17:20.993Z,4.60
2018-11-23T10:19:59.723Z,4.70
2018-11-23T10:22:29.224Z,4.70
2018-11-23T10:24:57.862Z,4.80
2018-11-23T10:27:26.987Z,4.80
2018-11-23T10:29:55.434Z,4.90
2018-11-23T10:32:25.917Z,4.90
2018-11-23T10:34:56.789Z,4.90
2018-11-23T10:37:25.841Z,4.90
2018-11-23T10:39:56.384Z,4.80
2018-11-23T10:42:24.794Z,4.80
2018-11-23T10:47:38.138Z,4.80
2018-11-23T10:50:09.298Z,4.80
2018-11-23T10:52:37.843Z,4.80
2018-11-23T10:55:10.587Z,4.80
2018-11-23T10:57:39.084Z,4.80
2018-11-23T11:00:46.408Z,4.80
2018-11-23T11:03:33.725Z,4.90
2018-11-23T11:06:17.023Z,4.90
2018-11-23T11:08:45.416Z,4.90
2018-11-23T11:11:14.151Z,4.90
2018-11-23T11:13:44.714Z,4.90
2018-11-23T11:16:13.053Z,4.90
2018-11-23T11:18:46.216Z,5.00
2018-11-23T11:21:14.788Z,4.90
2018-11-23T11:23:43.182Z,4.90
2018-11-23T11:26:12.815Z,5.00
2018-11-23T11:28:43.546Z,4.90
2018-11-23T11:31:11.960Z,5.00
2018-11-23T11:33:52.827Z,5.00
2018-11-23T11:36:23.612Z,5.00
2018-11-23T11:38:54.505Z,5.00
2018-11-23T11:41:30.032Z,5.00
2018-11-23T11:43:58.345Z,5.00
2018-11-23T11:46:26.710Z,5.10
2018-11-23T11:48:55.065Z,5.10
2018-11-23T11:51:23.797Z,5.20
2018-11-23T11:53:52.416Z,5.20
2018-11-23T11:56:23.032Z,5.20
2018-11-23T11:58:51.398Z,5.20
2018-11-23T12:01:19.701Z,5.20
2018-11-23T12:03:48.836Z,5.30
2018-11-23T12:06:17.205Z,5.40
2018-11-23T12:08:45.461Z,5.40
2018-11-23T12:11:13.840Z,5.40
2018-11-23T12:13:42.262Z,5.40
2018-11-23T12:16:10.707Z,5.40
2018-11-23T12:18:39.341Z,5.40
2018-11-23T12:21:08.570Z,5.40
2018-11-23T12:23:37.611Z,5.50
2018-11-23T12:26:14.639Z,5.40
2018-11-23T12:28:46.366Z,5.50
2018-11-23T12:31:26.860Z,5.50
2018-11-23T12:33:58.148Z,5.40
2018-11-23T12:36:26.545Z,5.30
2018-11-23T12:38:55.398Z,5.30
2018-11-23T12:41:24.234Z,5.30
2018-11-23T12:43:53.692Z,5.30
2018-11-23T12:46:22.367Z,5.40
2018-11-23T12:48:52.609Z,5.40
2018-11-23T12:51:21.775Z,5.50
2018-11-23T12:53:50.717Z,5.50
2018-11-23T12:56:19.148Z,5.50
2018-11-23T12:58:47.543Z,5.50
2018-11-23T13:01:16.038Z,5.50
2018-11-23T13:03:44.447Z,5.50
2018-11-23T13:06:14.041Z,5.50
2018-11-23T13:08:42.480Z,5.50
2018-11-23T13:11:12.445Z,5.50
2018-11-23T13:13:41.582Z,5.50
2018-11-23T13:16:11.217Z,5.50
2018-11-23T13:18:41.452Z,5.40
2018-11-23T13:21:10.097Z,5.40
2018-11-23T13:23:42.145Z,5.30
2018-11-23T13:26:11.409Z,5.30
2018-11-23T13:28:45.584Z,5.30
2018-11-23T13:31:14.028Z,5.20
2018-11-23T13:33:42.395Z,5.20
2018-11-23T13:36:10.694Z,5.20
2018-11-23T13:38:39.403Z,5.20
2018-11-23T13:41:08.528Z,5.20
2018-11-23T13:43:36.844Z,5.20
2018-11-23T13:46:05.366Z,5.30
2018-11-23T13:48:33.743Z,5.30
2018-11-23T13:51:02.129Z,5.30
2018-11-23T13:53:33.265Z,5.30
2018-11-23T13:56:01.640Z,5.20
2018-11-23T13:58:29.951Z,5.20
2018-11-23T14:01:03.760Z,5.20
2018-11-23T14:03:32.123Z,5.10
2018-11-23T14:06:00.708Z,5.00
2018-11-23T14:08:29.413Z,5.00
2018-11-23T14:11:01.591Z,4.90
2018-11-23T14:13:30.200Z,4.80
2018-11-23T14:16:00.534Z,4.70
2018-11-23T14:18:29.196Z,4.70
2018-11-23T14:21:04.396Z,4.60
2018-11-23T14:26:16.768Z,4.50
2018-11-23T14:28:54.566Z,4.40
2018-11-23T14:31:31.964Z,4.40
2018-11-23T14:34:29.910Z,4.30
2018-11-23T14:36:59.505Z,4.20
2018-11-23T14:39:27.871Z,4.10
2018-11-23T14:41:56.726Z,4.00
2018-11-23T14:44:37.193Z,4.00
2018-11-23T14:47:11.751Z,4.00
2018-11-23T14:49:43.514Z,3.90
2018-11-23T14:52:11.855Z,3.80
2018-11-23T14:54:42.878Z,3.70
2018-11-23T14:57:09.615Z,3.70
2018-11-23T14:59:38.967Z,3.60
2018-11-23T15:02:11.711Z,3.50
2018-11-23T15:04:40.016Z,3.50
2018-11-23T15:07:08.462Z,3.50
2018-11-23T15:09:36.958Z,3.50
2018-11-23T15:12:06.956Z,3.40
2018-11-23T15:14:35.350Z,3.30
2018-11-23T15:17:06.192Z,3.30
2018-11-23T15:19:35.197Z,3.30
2018-11-23T15:22:05.165Z,3.20
2018-11-23T15:24:35.420Z,3.10
2018-11-23T15:27:04.086Z,3.10
2018-11-23T15:29:32.875Z,3.10
2018-11-23T15:32:01.291Z,3.00
2018-11-23T15:34:29.674Z,3.00
2018-11-23T15:36:59.037Z,2.90
2018-11-23T15:39:27.561Z,2.90
2018-11-23T15:41:56.597Z,2.80
2018-11-23T15:44:25.392Z,2.80
2018-11-23T15:46:53.749Z,2.80
2018-11-23T15:49:23.068Z,2.80
2018-11-23T15:51:52.066Z,2.70
2018-11-23T15:54:21.002Z,2.70
2018-11-23T15:56:49.613Z,2.70
2018-11-23T15:59:19.272Z,2.60
2018-11-23T16:01:47.941Z,2.60
2018-11-23T16:04:21.891Z,2.50
2018-11-23T16:06:50.954Z,2.50
2018-11-23T16:09:19.254Z,2.40
2018-11-23T16:11:47.759Z,2.40
2018-11-23T16:14:16.075Z,2.40
2018-11-23T16:16:44.613Z,2.40
2018-11-23T16:19:15.753Z,2.30
2018-11-23T16:21:44.044Z,2.20
2018-11-23T16:24:14.213Z,2.10
2018-11-23T16:29:24.558Z,1.90
2018-11-23T16:31:54.833Z,1.80
2018-11-23T16:34:25.298Z,1.70
2018-11-23T16:36:56.684Z,1.60
2018-11-23T16:39:33.409Z,1.60
2018-11-23T16:42:01.876Z,1.50
2018-11-23T16:44:44.956Z,1.40
2018-11-23T16:47:13.933Z,1.40
2018-11-23T16:49:43.575Z,1.30
2018-11-23T16:52:24.373Z,1.30
2018-11-23T16:54:55.453Z,1.20
2018-11-23T16:57:25.147Z,1.20
2018-11-23T16:59:53.942Z,1.20
2018-11-23T17:02:47.940Z,1.10
2018-11-23T17:05:23.394Z,1.10
2018-11-23T17:10:49.178Z,1.10
2018-11-23T17:13:19.165Z,1.00
2018-11-23T17:16:04.063Z,1.00
2018-11-23T17:18:32.757Z,1.00
2018-11-23T17:21:04.829Z,0.90
2018-11-23T17:23:33.263Z,0.90
2018-11-23T17:26:07.464Z,0.90
2018-11-23T17:31:26.160Z,0.90
2018-11-23T17:36:37.343Z,0.80
2018-11-23T17:39:06.718Z,0.80
2018-11-23T17:41:44.767Z,0.80
2018-11-23T17:44:13.784Z,0.80
2018-11-23T17:46:43.006Z,0.70
2018-11-23T17:49:11.734Z,0.70
2018-11-23T17:51:40.031Z,0.60
2018-11-23T17:54:08.672Z,0.60
2018-11-23T17:56:41.906Z,0.60
2018-11-23T17:59:11.383Z,0.60
2018-11-23T18:01:40.481Z,0.50
2018-11-23T18:04:12.058Z,0.50
2018-11-23T18:06:40.439Z,0.50
2018-11-23T18:09:23.626Z,0.50
2018-11-23T18:11:52.274Z,0.40
2018-11-23T18:14:22.008Z,0.40
2018-11-23T18:16:50.337Z,0.40
2018-11-23T18:19:26.263Z,0.50
2018-11-23T18:21:54.570Z,0.40
2018-11-23T18:24:25.444Z,0.40
2018-11-23T18:26:54.474Z,0.40
2018-11-23T18:29:26.265Z,0.40
2018-11-23T18:31:55.402Z,0.30
2018-11-23T18:34:24.335Z,0.30
2018-11-23T18:36:54.098Z,0.40
2018-11-23T18:39:23.082Z,0.30
2018-11-23T18:41:54.130Z,0.30
2018-11-23T18:44:22.736Z,0.30
2018-11-23T18:46:52.773Z,0.30
2018-11-23T18:49:22.773Z,0.40
2018-11-23T18:51:52.131Z,0.30
2018-11-23T18:54:22.364Z,0.40
2018-11-23T18:56:52.498Z,0.30
2018-11-23T18:59:23.195Z,0.30
2018-11-23T19:01:56.473Z,0.30
2018-11-23T19:04:25.956Z,0.30
2018-11-23T19:06:55.780Z,0.30
2018-11-23T19:09:26.117Z,0.30
2018-11-23T19:11:55.557Z,0.30
2018-11-23T19:14:25.139Z,0.30
2018-11-23T19:16:54.194Z,0.30
2018-11-23T19:19:22.498Z,0.30
2018-11-23T19:21:53.528Z,0.30
2018-11-23T19:24:21.817Z,0.30
2018-11-23T19:26:58.293Z,0.40
2018-11-23T19:29:26.775Z,0.40
2018-11-23T19:31:55.798Z,0.30
2018-11-23T19:34:27.957Z,0.40
2018-11-23T19:36:57.238Z,0.30
2018-11-23T19:39:28.377Z,0.40
2018-11-23T19:41:56.684Z,0.30
2018-11-23T19:44:25.558Z,0.40
2018-11-23T19:46:53.858Z,0.30
2018-11-23T19:49:23.165Z,0.40
2018-11-23T19:51:52.012Z,0.40
2018-11-23T19:54:31.489Z,0.40
2018-11-23T19:57:00.901Z,0.40
2018-11-23T19:59:29.991Z,0.40
2018-11-23T20:01:58.530Z,0.40
2018-11-23T20:04:26.819Z,0.50
2018-11-23T20:06:55.194Z,0.40
2018-11-23T20:09:23.884Z,0.50
2018-11-23T20:11:52.227Z,0.50
2018-11-23T20:14:20.584Z,0.50
2018-11-23T20:16:48.901Z,0.50
2018-11-23T20:19:17.174Z,0.60
2018-11-23T20:21:45.534Z,0.60
2018-11-23T20:24:14.427Z,0.60
2018-11-23T20:26:43.456Z,0.60
2018-11-23T20:29:12.328Z,0.60
2018-11-23T20:31:40.603Z,0.60
2018-11-23T20:34:09.402Z,0.60
2018-11-23T20:36:37.665Z,0.60
2018-11-23T20:39:08.850Z,0.60
2018-11-23T20:41:38.411Z,0.70
2018-11-23T20:44:06.882Z,0.70
2018-11-23T20:46:35.647Z,0.70
2018-11-23T20:49:05.342Z,0.80
2018-11-23T20:51:33.887Z,0.80
2018-11-23T20:54:02.198Z,0.80
2018-11-23T20:56:30.611Z,0.80
2018-11-23T20:58:59.009Z,0.80
2018-11-23T21:01:27.378Z,0.80
2018-11-23T21:03:55.761Z,0.80
2018-11-23T21:06:24.244Z,0.70
2018-11-23T21:08:52.691Z,0.80
2018-11-23T21:11:21.062Z,0.70
2018-11-23T21:13:49.369Z,0.80
2018-11-23T21:16:18.672Z,0.80
2018-11-23T21:18:46.961Z,0.80
2018-11-23T21:21:15.365Z,0.70
2018-11-23T21:23:43.772Z,0.70
2018-11-23T21:26:12.113Z,0.70
2018-11-23T21:28:40.420Z,0.70
2018-11-23T21:31:08.704Z,0.70
2018-11-23T21:33:37.113Z,0.60
2018-11-23T21:36:05.993Z,0.70
2018-11-23T21:38:34.403Z,0.60
2018-11-23T21:41:05.374Z,0.60
2018-11-23T21:43:34.644Z,0.60
2018-11-23T21:46:04.606Z,0.60
2018-11-23T21:48:33.036Z,0.60
2018-11-23T21:51:01.375Z,0.70
2018-11-23T21:53:29.652Z,0.60
2018-11-23T21:55:58.020Z,0.60
2018-11-23T21:58:28.515Z,0.60
2018-11-23T22:00:57.146Z,0.60
2018-11-23T22:03:25.590Z,0.60
2018-11-23T22:05:56.827Z,0.60
2018-11-23T22:08:25.084Z,0.60
2018-11-23T22:10:53.367Z,0.60
2018-11-23T22:13:22.449Z,0.70
2018-11-23T22:15:51.758Z,0.70
2018-11-23T22:18:21.168Z,0.70
2018-11-23T22:20:51.271Z,0.80
2018-11-23T22:23:23.146Z,0.80
2018-11-23T22:25:52.490Z,0.90
2018-11-23T22:28:21.638Z,0.90
2018-11-23T22:30:51.755Z,0.90
2018-11-23T22:33:21.010Z,0.80
2018-11-23T22:35:59.904Z,0.80
2018-11-23T22:38:30.068Z,0.80
2018-11-23T22:41:01.848Z,0.80
2018-11-23T22:43:31.563Z,0.80
2018-11-23T22:46:02.664Z,0.80
2018-11-23T22:48:31.025Z,0.90
2018-11-23T22:50:59.977Z,0.90
2018-11-23T22:53:38.201Z,0.90
2018-11-23T22:56:31.666Z,1.00
2018-11-23T22:59:15.407Z,1.00
2018-11-23T23:01:43.830Z,1.00
2018-11-23T23:04:14.069Z,1.10
2018-11-23T23:06:47.575Z,1.10
2018-11-23T23:12:29.125Z,1.00
2018-11-23T23:18:06.928Z,1.10
2018-11-23T23:20:54.343Z,1.10
2018-11-23T23:23:28.503Z,1.10
2018-11-23T23:26:09.849Z,1.10
2018-11-23T23:28:39.261Z,1.10
2018-11-23T23:31:09.257Z,1.10
2018-11-23T23:34:02.965Z,1.10
2018-11-23T23:36:31.416Z,1.20
2018-11-23T23:39:02.377Z,1.30
2018-11-23T23:41:40.006Z,1.30
2018-11-23T23:44:08.550Z,1.30
2018-11-23T23:46:47.680Z,1.30
2018-11-23T23:49:17.411Z,1.40
2018-11-23T23:51:46.338Z,1.30
2018-11-23T23:54:17.792Z,1.40
2018-11-23T23:56:49.714Z,1.40
2018-11-23T23:59:18.956Z,1.50
